Aérodrome :
LOGIN :

S'inscrire | Disclaimer

   EN    FR    IT 

 










Légende :    VFR   VFR Marginal   IFR   IFR Intensif   IFR Très Intensif
Visi : 
Plafond : 
>= 8 km
>= 3000ft
5 à 8 km
1000 à 3000 ft
1500m à 5 km
500 à 1000 ft
800 à 1500m
200 à 500 ft
< 800m
< 200 ft
Symboles :   Orages  Brouillard  Fortes neiges  Fortes précipitations  Vent > 20 kt
SIGMETs :   Divers  Orages  Givrage  Turbulence  Onde Orograph.  Cendres Volcan.







- Altitude de l'aérodrome : 219 ft
- Code IATA : DNR
- Voir les cartes d'approche


LFRD - Dinard

DERNIER METAR :
  • 201900Z AUTO 20006KT CAVOK 09/08 Q1020 NOSIG

METARs EXPIRÉS :
  • 201830Z AUTO 20006KT CAVOK 10/08 Q1020 NOSIG
  • 201800Z AUTO 22008KT CAVOK 10/08 Q1019 NOSIG
  • 201730Z AUTO 22009KT CAVOK 11/08 Q1019 NOSIG
  • 201700Z AUTO 22012KT CAVOK 11/08 Q1019 NOSIG
  • 201630Z AUTO 22011KT CAVOK 11/09 Q1019 NOSIG

TAF TAF LFRD
Valide du 20 à 18h jusqu'au 21 à 18h UTC


201700Z 2018/2118 23010KT 9999 BKN020
BECMG 2022/2024 3000 BR BKN008
PROB30
TEMPO 2100/2108 1500 BR BKN002
BECMG 2108/2110 9999 NSW BKN018
PROB30
TEMPO 2116/2118 BKN010
ATIS : +33 2 99 16 81 50
Pas de NOTAMs connus pour ce terrain.



MET'MAP, la Météo Aéronautique d'un coup d'oeil ! - Copyright ORBIFLY Décembre 2007 - Disclaimer

ORBIFLY MET'MAP TEAM :

Programmation & Développement : Alexandra Zaïnal
Conception & Développement : Baudouin d'Aumeries
Co-Programmation & Développement : Marc-Olivier Méhu
Soutien technique & logistique : Manuel Goepfert

Contact : metmap@orbifly.com




SOURCES & CREDITS :

   NOAA